Time;durP1;ratioP1;P1;durP2;ratioP2;P2;SDS_P1;SDS_P2;PMS_P1;PMS_P2;Temp;Humidity;BMP_temperature;BMP_pressure;BME280_temperature;BME280_humidity;BME280_pressure;Samples;Min_cycle;Max_cycle;Signal;HPM_P1;HPM_P2
2023/01/17 00:18:16;;;;;;;1.40;1.35;;;;;;;8.20;69.05;98282.81;18492892;32;20441;-59
2023/01/17 01:40:16;;;;;;;9.10;1.27;;;;;;;8.52;68.94;98247.34;18498834;32;20096;-59
2023/01/17 01:50:20;;;;;;;0.98;0.98;;;;;;;8.46;69.20;98250.94;18498125;32;20107;-59
2023/01/17 02:00:28;;;;;;;0.60;0.60;;;;;;;8.47;69.04;98257.84;18498321;32;20136;-59
2023/01/17 02:10:32;;;;;;;2.62;2.53;;;;;;;8.59;68.80;98261.88;18497991;32;20117;-59
2023/01/17 02:20:56;;;;;;;0.90;0.90;;;;;;;8.48;69.19;98253.47;18497265;32;20495;-59
2023/01/17 02:31:02;;;;;;;0.95;0.95;;;;;;;8.52;69.16;98223.94;18497278;32;20105;-59
2023/01/17 02:41:07;;;;;;;5.50;1.67;;;;;;;8.38;69.90;98197.44;18497380;32;20088;-59
2023/01/17 02:51:40;;;;;;;0.70;0.70;;;;;;;8.42;69.56;98207.69;18497096;32;20158;-59
2023/01/17 03:01:50;;;;;;;1.42;1.40;;;;;;;8.52;69.49;98202.28;18494133;32;20088;-59
2023/01/17 03:11:56;;;;;;;1.30;1.23;;;;;;;8.60;69.49;98184.69;18496275;32;20503;-59
2023/01/17 03:21:59;;;;;;;0.90;0.90;;;;;;;8.58;69.89;98157.88;18495641;32;20107;-59
2023/01/17 03:32:03;;;;;;;1.02;0.88;;;;;;;8.70;69.74;98136.69;18495368;32;20368;-59
2023/01/17 03:42:07;;;;;;;0.80;0.80;;;;;;;8.60;69.95;98130.06;18494769;32;20116;-59
2023/01/17 03:52:11;;;;;;;2.75;2.65;;;;;;;8.72;69.58;98097.63;18494266;32;20109;-59
2023/01/17 04:02:14;;;;;;;0.60;0.60;;;;;;;8.67;69.93;98091.72;18493801;32;20101;-59
2023/01/17 04:12:19;;;;;;;1.20;1.10;;;;;;;8.83;69.43;98081.69;18496663;32;20088;-59
2023/01/17 04:22:22;;;;;;;0.88;0.88;;;;;;;8.78;69.55;98091.38;18501153;32;20118;-59
2023/01/17 04:32:28;;;;;;;1.15;1.15;;;;;;;8.83;69.24;98082.53;18500856;32;20093;-59
2023/01/17 04:42:31;;;;;;;1.50;1.45;;;;;;;8.70;69.55;98087.28;18500415;32;20093;-59
2023/01/17 04:52:36;;;;;;;2.12;2.03;;;;;;;8.73;69.38;98071.59;18500198;32;20099;-59
2023/01/17 05:02:39;;;;;;;1.90;1.77;;;;;;;8.71;69.26;98068.16;18499787;32;20162;-59
2023/01/17 05:12:44;;;;;;;1.30;1.20;;;;;;;8.85;68.67;98077.28;18499625;32;20101;-58
2023/01/17 05:22:54;;;;;;;0.70;0.70;;;;;;;8.83;68.96;98066.09;18498428;32;20146;-58
2023/01/17 05:32:59;;;;;;;0.70;0.70;;;;;;;8.68;69.74;98064.81;18498922;32;20124;-58
2023/01/17 05:43:03;;;;;;;1.05;1.02;;;;;;;8.54;70.71;98060.91;18498389;32;20138;-58
2023/01/17 05:53:08;;;;;;;0.60;0.60;;;;;;;8.60;70.18;98070.25;18498328;32;20119;-58
2023/01/17 06:03:12;;;;;;;0.50;0.50;;;;;;;8.54;71.00;98070.47;18497869;32;20093;-57
2023/01/17 06:13:20;;;;;;;0.50;0.50;;;;;;;8.52;71.14;98090.44;18497517;32;20109;-58
2023/01/17 06:23:24;;;;;;;0.52;0.52;;;;;;;8.55;71.31;98111.19;18495486;32;20089;-58
2023/01/17 06:33:28;;;;;;;0.70;0.70;;;;;;;8.66;70.73;98111.69;18497240;32;20127;-58
2023/01/17 06:43:33;;;;;;;0.98;0.98;;;;;;;8.44;71.22;98133.13;18490490;32;20201;-58
2023/01/17 06:53:39;;;;;;;0.70;0.70;;;;;;;8.74;70.54;98132.25;18493202;32;20092;-58
2023/01/17 07:03:42;;;;;;;0.60;0.60;;;;;;;8.62;70.17;98159.47;18496436;32;20453;-58
2023/01/17 07:13:47;;;;;;;0.73;0.73;;;;;;;8.68;70.32;98187.91;18496248;32;20088;-58
2023/01/17 07:23:53;;;;;;;1.50;1.40;;;;;;;8.80;69.47;98202.31;18495957;32;20429;-57
2023/01/17 07:33:58;;;;;;;0.60;0.60;;;;;;;8.30;69.09;98229.72;18495491;32;20433;-59
2023/01/17 07:44:01;;;;;;;0.60;0.60;;;;;;;8.08;69.57;98238.97;18493827;32;20174;-59
2023/01/17 07:54:05;;;;;;;0.55;0.55;;;;;;;8.13;69.00;98253.56;18494586;32;20107;-59
2023/01/17 08:04:09;;;;;;;0.73;0.73;;;;;;;8.15;68.87;98267.34;18493822;32;20175;-59
2023/01/17 08:14:13;;;;;;;1.05;1.05;;;;;;;8.05;69.09;98295.34;18493219;32;20388;-59
2023/01/17 08:24:16;;;;;;;0.60;0.60;;;;;;;7.93;69.12;98318.19;18492608;32;20119;-59
2023/01/17 08:34:21;;;;;;;0.93;0.93;;;;;;;7.90;69.19;98330.38;18481577;32;20097;-59
2023/01/17 08:44:24;;;;;;;0.50;0.50;;;;;;;8.25;68.61;98332.09;18443905;32;20081;-60
2023/01/17 08:54:29;;;;;;;0.70;0.70;;;;;;;8.44;65.53;98351.53;18488587;32;20089;-60
2023/01/17 09:04:32;;;;;;;0.68;0.68;;;;;;;8.13;66.07;98352.31;18494732;32;20092;-60
2023/01/17 09:14:37;;;;;;;0.60;0.60;;;;;;;8.55;66.64;98368.63;18499786;32;20648;-60
2023/01/17 09:24:40;;;;;;;0.60;0.60;;;;;;;9.25;64.18;98359.72;18498813;32;20097;-60
2023/01/17 09:34:46;;;;;;;0.50;0.50;;;;;;;10.46;58.12;98368.09;18496581;32;20099;-60
2023/01/17 09:44:51;;;;;;;0.50;0.50;;;;;;;11.52;56.02;98383.44;18498081;32;20457;-59
2023/01/17 09:54:56;;;;;;;0.55;0.55;;;;;;;11.58;55.50;98399.81;18491009;32;20111;-60
2023/01/17 10:05:42;;;;;;;0.50;0.50;;;;;;;10.95;55.96;98415.13;18497358;32;20107;-60
2023/01/17 10:16:07;;;;;;;0.60;0.60;;;;;;;10.70;57.73;98428.19;18488759;32;20093;-60
2023/01/17 10:26:15;;;;;;;0.40;0.40;;;;;;;10.60;58.48;98427.62;18497808;32;20152;-60
2023/01/17 10:36:21;;;;;;;1.02;1.02;;;;;;;10.74;57.34;98441.97;18497038;32;20179;-60
2023/01/17 10:46:27;;;;;;;0.73;0.73;;;;;;;10.85;57.03;98441.59;18494017;32;20119;-60
2023/01/17 10:56:33;;;;;;;0.40;0.40;;;;;;;10.92;58.06;98417.84;18490470;32;20100;-61
2023/01/17 11:06:37;;;;;;;0.50;0.50;;;;;;;10.86;56.55;98402.41;18492858;32;20085;-60
2023/01/17 11:17:02;;;;;;;0.45;0.45;;;;;;;11.20;56.08;98376.81;18490481;32;20116;-60
2023/01/17 11:27:08;;;;;;;0.40;0.40;;;;;;;11.45;56.47;98370.69;18491786;32;20100;-60
2023/01/17 11:37:17;;;;;;;3.35;0.70;;;;;;;11.25;56.76;98359.22;18458132;32;84290;-60
2023/01/17 11:47:21;;;;;;;0.60;0.60;;;;;;;10.14;58.44;98357.81;18488846;32;20141;-60
2023/01/17 11:57:27;;;;;;;0.50;0.50;;;;;;;10.42;56.56;98353.47;18483063;32;20085;-60
2023/01/17 12:07:37;;;;;;;0.52;0.52;;;;;;;10.24;55.04;98326.22;18481270;32;20154;-60
2023/01/17 12:17:57;;;;;;;0.60;0.60;;;;;;;10.48;55.19;98329.78;18431887;32;20110;-60
2023/01/17 12:28:12;;;;;;;0.60;0.60;;;;;;;9.56;55.14;98373.59;18428927;32;20410;-60
2023/01/17 12:38:19;;;;;;;0.50;0.50;;;;;;;9.72;55.26;98373.97;18481735;32;20092;-60
2023/01/17 12:48:38;;;;;;;0.50;0.50;;;;;;;10.90;49.69;98380.47;18453514;32;20144;-60
2023/01/17 12:58:45;;;;;;;0.50;0.50;;;;;;;11.14;50.78;98388.34;18496006;32;20404;-60
2023/01/17 13:08:51;;;;;;;0.60;0.60;;;;;;;11.20;49.43;98382.91;18495347;32;20105;-60
2023/01/17 13:18:57;;;;;;;1.23;0.60;;;;;;;11.27;49.94;98382.66;18488172;32;20173;-60
2023/01/17 13:29:06;;;;;;;0.50;0.50;;;;;;;10.96;50.08;98371.59;18497546;32;20140;-60
2023/01/17 13:39:30;;;;;;;0.50;0.50;;;;;;;11.15;49.10;98373.53;18492608;32;20534;-60
2023/01/17 13:49:50;;;;;;;0.50;0.50;;;;;;;11.32;50.66;98383.34;18496308;32;20111;-60
2023/01/17 13:59:55;;;;;;;0.60;0.60;;;;;;;10.79;52.21;98390.47;18488166;32;20124;-60
2023/01/17 14:09:58;;;;;;;0.50;0.50;;;;;;;9.93;54.27;98367.22;18493225;32;20081;-60
2023/01/17 14:20:34;;;;;;;1.12;1.00;;;;;;;10.16;53.63;98351.72;18497360;32;20114;-60
2023/01/17 14:30:39;;;;;;;0.60;0.60;;;;;;;9.10;56.68;98323.72;18492248;32;20633;-60
2023/01/17 14:40:49;;;;;;;0.65;0.65;;;;;;;9.35;55.96;98308.25;18493914;32;20122;-60
2023/01/17 14:50:57;;;;;;;1.10;1.10;;;;;;;9.17;56.54;98278.41;18493567;32;20119;-60
2023/01/17 15:01:02;;;;;;;0.50;0.50;;;;;;;9.02;57.76;98249.34;18489469;32;20089;-60
2023/01/17 15:11:09;;;;;;;1.90;1.80;;;;;;;9.68;56.54;98253.34;18483141;32;20108;-60
2023/01/17 15:21:16;;;;;;;0.62;0.62;;;;;;;9.72;56.83;98251.50;18492463;32;20429;-60
2023/01/17 15:31:24;;;;;;;0.55;0.55;;;;;;;10.06;56.43;98249.50;18490638;32;20093;-60
2023/01/17 15:41:30;;;;;;;1.00;1.00;;;;;;;8.90;59.33;98234.09;18490170;32;20445;-60
2023/01/17 15:51:37;;;;;;;0.68;0.68;;;;;;;9.84;57.61;98245.88;18486674;32;20119;-60
2023/01/17 16:01:43;;;;;;;1.25;1.25;;;;;;;9.85;58.72;98237.16;18472908;32;20414;-60
2023/01/17 16:11:48;;;;;;;0.70;0.70;;;;;;;9.84;59.56;98216.38;18480439;32;20089;-60
2023/01/17 16:21:55;;;;;;;1.50;1.40;;;;;;;9.83;59.57;98219.88;18499479;32;20124;-60
2023/01/17 16:32:06;;;;;;;13.88;2.47;;;;;;;9.74;59.13;98210.59;18500786;32;20110;-60
2023/01/17 16:42:11;;;;;;;1.20;0.80;;;;;;;9.58;59.08;98200.72;18495748;32;20374;-60
2023/01/17 16:52:15;;;;;;;1.87;0.73;;;;;;;9.80;59.02;98183.50;18438831;32;20101;-60
2023/01/17 17:02:19;;;;;;;0.90;0.90;;;;;;;9.77;59.64;98168.84;18406490;32;20097;-60
2023/01/17 17:12:23;;;;;;;0.73;0.73;;;;;;;9.64;60.47;98167.53;18492343;32;20412;-60
2023/01/17 17:22:27;;;;;;;0.60;0.60;;;;;;;7.92;65.85;98174.47;18496163;32;20442;-59
2023/01/17 17:32:31;;;;;;;0.70;0.70;;;;;;;6.94;70.88;98166.50;18462973;32;20141;-60
2023/01/17 17:42:35;;;;;;;0.77;0.77;;;;;;;6.58;73.80;98158.69;18445527;32;20084;-59
2023/01/17 17:52:39;;;;;;;1.05;1.05;;;;;;;6.56;74.72;98145.72;18497023;32;20154;-60
2023/01/17 18:02:43;;;;;;;1.90;1.77;;;;;;;7.20;73.15;98107.94;18495593;32;20073;-60
2023/01/17 18:12:49;;;;;;;0.57;0.57;;;;;;;8.07;70.11;98100.44;18494855;32;20154;-60
2023/01/17 18:22:52;;;;;;;0.60;0.60;;;;;;;8.52;68.49;98052.31;18493811;32;20152;-59
2023/01/17 18:32:57;;;;;;;0.70;0.70;;;;;;;8.32;69.53;98037.28;18491899;32;20092;-61
2023/01/17 18:43:00;;;;;;;0.70;0.70;;;;;;;8.60;68.44;98013.91;18489911;32;20096;-60
2023/01/17 18:53:05;;;;;;;1.25;1.17;;;;;;;8.59;68.51;97993.16;18474201;32;20147;-60
2023/01/17 19:03:08;;;;;;;0.50;0.50;;;;;;;8.44;69.16;97971.06;18437268;32;20105;-59
2023/01/17 19:13:13;;;;;;;0.60;0.60;;;;;;;7.27;73.49;97981.47;18495146;32;20114;-59
2023/01/17 19:23:16;;;;;;;0.60;0.60;;;;;;;7.13;74.41;97974.06;18494815;32;20093;-60
2023/01/17 19:33:24;;;;;;;0.70;0.70;;;;;;;6.48;76.53;97942.87;18493354;32;20146;-60
2023/01/17 19:43:28;;;;;;;0.57;0.57;;;;;;;6.97;73.59;97926.94;18491855;32;20093;-59
2023/01/17 19:53:34;;;;;;;0.50;0.50;;;;;;;7.11;72.99;97913.56;18489110;32;21074;-59
2023/01/17 20:03:38;;;;;;;0.50;0.50;;;;;;;7.25;72.12;97869.94;18490409;32;20106;-60
2023/01/17 20:13:43;;;;;;;0.60;0.60;;;;;;;7.05;71.92;97832.44;18492686;32;20093;-59
2023/01/17 20:23:47;;;;;;;0.60;0.60;;;;;;;6.77;72.38;97794.34;18493528;32;20400;-59
2023/01/17 20:33:53;;;;;;;0.60;0.60;;;;;;;6.49;71.65;97802.91;18491108;32;20092;-59
2023/01/17 20:43:59;;;;;;;0.90;0.90;;;;;;;5.81;73.74;97786.50;18492125;32;20089;-59
2023/01/17 20:54:05;;;;;;;0.65;0.65;;;;;;;5.71;73.49;97764.31;18487967;32;20117;-60
2023/01/17 21:04:09;;;;;;;0.60;0.60;;;;;;;5.68;73.65;97760.91;18494728;32;20727;-59
2023/01/17 21:14:13;;;;;;;0.60;0.60;;;;;;;5.54;73.53;97742.28;18497605;32;20097;-59
2023/01/17 21:24:17;;;;;;;0.60;0.60;;;;;;;5.19;74.55;97725.88;18490503;32;20093;-59
2023/01/17 21:34:23;;;;;;;0.77;0.77;;;;;;;4.56;76.76;97703.12;18468725;32;20436;-59
2023/01/17 21:44:35;;;;;;;0.50;0.50;;;;;;;5.73;72.93;97687.47;18490063;32;20111;-60
2023/01/17 22:05:00;;;;;;;;;;;;;;;5.73;72.71;97609.81;18497451;32;20102;-59
2023/01/17 22:15:05;;;;;;;0.70;0.70;;;;;;;6.14;71.53;97633.72;18497025;32;19998;-60
2023/01/17 22:25:09;;;;;;;0.65;0.65;;;;;;;6.16;71.37;97606.03;18487594;32;20361;-60
2023/01/17 22:35:14;;;;;;;0.82;0.82;;;;;;;6.22;71.64;97582.53;18433008;32;20104;-59
2023/01/17 22:45:18;;;;;;;0.60;0.60;;;;;;;5.93;71.71;97573.84;18432523;32;20116;-59
2023/01/17 22:55:22;;;;;;;0.70;0.70;;;;;;;5.65;72.48;97578.97;18494589;32;20453;-60
2023/01/17 23:05:25;;;;;;;0.50;0.50;;;;;;;6.14;71.01;97599.22;18496361;32;20115;-60
2023/01/17 23:25:51;;;;;;;0.60;0.60;;;;;;;6.40;70.25;97585.47;18492702;32;20381;-60
2023/01/17 23:35:55;;;;;;;0.52;0.52;;;;;;;6.63;69.27;97597.72;18495568;32;20096;-60
2023/01/17 23:45:58;;;;;;;0.60;0.60;;;;;;;6.83;68.87;97590.19;18494443;32;20439;-60
2023/01/17 23:56:07;;;;;;;1.20;1.15;;;;;;;6.89;68.61;97615.94;18495464;32;20096;-60
